createdAt,value
2022-12-18T00:00:28.072Z,93.97
2022-12-18T00:05:28.034Z,94.67
2022-12-18T00:10:27.940Z,94.14
2022-12-18T00:15:27.915Z,94.14
2022-12-18T00:20:27.823Z,94.67
2022-12-18T00:25:27.824Z,95.10
2022-12-18T00:30:27.711Z,94.46
2022-12-18T00:35:27.682Z,93.60
2022-12-18T00:40:27.563Z,94.57
2022-12-18T00:45:27.603Z,94.57
2022-12-18T00:50:27.503Z,94.89
2022-12-18T00:55:27.429Z,94.14
2022-12-18T01:00:27.379Z,93.82
2022-12-18T01:05:43.920Z,93.97
2022-12-18T01:10:36.330Z,93.60
2022-12-18T01:15:36.307Z,94.67
2022-12-18T01:20:36.187Z,94.57
2022-12-18T01:25:36.133Z,94.57
2022-12-18T01:30:36.115Z,94.67
2022-12-18T01:35:36.004Z,93.29
2022-12-18T01:40:35.963Z,92.36
2022-12-18T01:45:35.948Z,93.54
2022-12-18T01:50:35.843Z,93.54
2022-12-18T01:55:35.739Z,93.05
2022-12-18T02:00:35.750Z,94.23
2022-12-18T02:05:35.655Z,93.48
2022-12-18T02:10:35.580Z,93.48
2022-12-18T02:15:35.534Z,93.80
2022-12-18T02:20:35.530Z,94.87
2022-12-18T02:25:35.426Z,94.93
2022-12-18T02:30:36.328Z,93.26
2022-12-18T02:35:35.278Z,93.05
2022-12-18T02:40:35.240Z,93.05
2022-12-18T02:45:35.186Z,93.15
2022-12-18T02:50:35.100Z,92.83
2022-12-18T02:55:35.067Z,94.12
2022-12-18T03:00:34.974Z,93.95
2022-12-18T03:05:34.906Z,93.95
2022-12-18T03:10:34.855Z,94.23
2022-12-18T03:15:34.810Z,95.18
2022-12-18T03:20:34.704Z,95.14
2022-12-18T03:25:34.707Z,94.12
2022-12-18T03:30:34.654Z,94.54
2022-12-18T03:35:34.559Z,95.08
2022-12-18T03:40:34.486Z,93.90
2022-12-18T03:45:34.447Z,94.76
2022-12-18T03:50:34.364Z,94.23
2022-12-18T03:55:34.325Z,94.33
2022-12-18T04:00:34.253Z,93.90
2022-12-18T04:05:34.221Z,92.88
2022-12-18T04:10:34.130Z,92.49
2022-12-18T04:15:34.115Z,92.49
2022-12-18T04:20:33.990Z,94.20
2022-12-18T04:25:33.967Z,93.24
2022-12-18T04:30:33.883Z,92.64
2022-12-18T04:35:33.828Z,92.57
2022-12-18T04:40:33.753Z,94.29
2022-12-18T04:45:33.718Z,94.46
2022-12-18T04:50:33.662Z,93.92
2022-12-18T04:55:33.599Z,92.14
2022-12-18T05:00:33.525Z,92.25
2022-12-18T05:05:33.469Z,93.15
2022-12-18T05:10:38.000Z,93.26
2022-12-18T05:15:34.350Z,92.72
2022-12-18T05:20:33.271Z,92.08
2022-12-18T05:25:33.231Z,92.11
2022-12-18T05:30:33.165Z,93.08
2022-12-18T05:35:33.125Z,93.30
2022-12-18T05:40:33.042Z,94.11
2022-12-18T05:45:32.995Z,92.29
2022-12-18T05:50:32.911Z,92.55
2022-12-18T05:55:32.887Z,92.33
2022-12-18T06:00:32.797Z,92.86
2022-12-18T06:05:32.753Z,92.65
2022-12-18T06:10:32.695Z,91.83
2022-12-18T06:15:32.672Z,92.48
2022-12-18T06:20:33.765Z,92.48
2022-12-18T06:25:32.520Z,91.94
2022-12-18T06:30:32.447Z,92.58
2022-12-18T06:35:32.406Z,92.80
2022-12-18T06:40:32.367Z,93.33
2022-12-18T06:45:32.332Z,92.91
2022-12-18T06:50:32.190Z,92.91
2022-12-18T06:55:32.156Z,93.55
2022-12-18T07:00:47.698Z,92.80
2022-12-18T07:05:40.081Z,92.76
2022-12-18T07:10:44.741Z,93.51
2022-12-18T07:15:40.962Z,94.33
2022-12-18T07:20:39.916Z,93.00
2022-12-18T07:25:39.842Z,93.75
2022-12-18T07:30:39.775Z,93.49
2022-12-18T07:35:39.721Z,93.07
2022-12-18T07:40:39.674Z,93.28
2022-12-18T07:45:39.645Z,92.03
2022-12-18T07:50:39.545Z,92.14
2022-12-18T07:56:05.521Z,91.71
2022-12-18T08:00:40.416Z,90.75
2022-12-18T08:05:39.355Z,90.53
2022-12-18T08:10:39.330Z,90.11
2022-12-18T08:15:39.222Z,89.89
2022-12-18T08:20:39.185Z,91.03
2022-12-18T08:25:39.120Z,90.80
2022-12-18T08:30:39.127Z,89.47
2022-12-18T08:35:45.449Z,86.15
2022-12-18T08:40:39.941Z,84.36
2022-12-18T08:45:38.918Z,81.17
2022-12-18T08:50:38.799Z,82.87
2022-12-18T08:55:38.780Z,82.09
2022-12-18T09:00:38.719Z,83.62
2022-12-18T09:05:38.593Z,84.89
2022-12-18T09:10:43.150Z,83.50
2022-12-18T09:15:38.500Z,82.26
2022-12-18T09:20:38.468Z,81.48
2022-12-18T09:25:38.400Z,81.23
2022-12-18T09:30:38.338Z,80.03
2022-12-18T09:35:38.286Z,80.88
2022-12-18T09:40:38.178Z,82.30
2022-12-18T09:45:38.129Z,83.58
2022-12-18T09:50:38.090Z,84.17
2022-12-18T09:55:38.010Z,83.03
2022-12-18T10:00:37.971Z,82.97
2022-12-18T10:05:37.884Z,83.07
2022-12-18T10:10:37.834Z,84.56
2022-12-18T10:15:37.763Z,84.98
2022-12-18T10:20:37.713Z,85.69
2022-12-18T10:25:37.635Z,85.18
2022-12-18T10:30:37.583Z,85.14
2022-12-18T10:35:37.507Z,84.61
2022-12-18T10:40:37.418Z,83.77
2022-12-18T10:45:37.348Z,83.59
2022-12-18T10:51:09.035Z,82.00
2022-12-18T10:55:38.228Z,83.31
2022-12-18T11:00:37.193Z,84.01
2022-12-18T11:05:37.169Z,84.39
2022-12-18T11:10:37.055Z,84.25
2022-12-18T11:15:37.053Z,84.46
2022-12-18T11:20:36.939Z,84.11
2022-12-18T11:25:37.804Z,83.55
2022-12-18T11:30:36.863Z,84.89
2022-12-18T11:35:36.736Z,84.67
2022-12-18T11:40:41.122Z,85.38
2022-12-18T11:45:36.637Z,86.05
2022-12-18T11:50:36.599Z,85.73
2022-12-18T11:55:36.460Z,86.75
2022-12-18T12:00:36.640Z,86.92
2022-12-18T12:05:36.330Z,86.92
2022-12-18T12:10:36.300Z,87.09
2022-12-18T12:15:36.227Z,87.30
2022-12-18T12:20:36.277Z,87.96
2022-12-18T12:25:36.145Z,88.56
2022-12-18T12:30:36.063Z,89.29
2022-12-18T12:35:36.004Z,89.04
2022-12-18T12:40:57.004Z,89.74
2022-12-18T12:45:36.847Z,89.64
2022-12-18T12:50:35.785Z,90.12
2022-12-18T12:55:35.687Z,90.12
2022-12-18T13:00:35.646Z,89.59
2022-12-18T13:05:35.565Z,89.49
2022-12-18T13:10:35.513Z,89.39
2022-12-18T13:15:39.290Z,89.24
2022-12-18T13:20:35.363Z,89.56
2022-12-18T13:25:35.294Z,89.56
2022-12-18T13:30:35.310Z,89.56
2022-12-18T13:35:35.181Z,89.87
2022-12-18T13:40:35.120Z,89.45
2022-12-18T13:45:35.066Z,89.56
2022-12-18T13:50:36.035Z,89.34
2022-12-18T13:55:34.913Z,89.56
2022-12-18T14:00:34.900Z,89.81
2022-12-18T14:05:34.769Z,89.70
2022-12-18T14:10:48.568Z,89.91
2022-12-18T14:15:35.681Z,90.44
2022-12-18T14:20:34.795Z,90.75
2022-12-18T14:25:34.519Z,90.97
2022-12-18T14:30:34.567Z,91.17
2022-12-18T14:35:34.418Z,91.53
2022-12-18T14:40:34.351Z,91.42
2022-12-18T14:45:41.096Z,90.69
2022-12-18T14:50:35.433Z,90.58
2022-12-18T14:55:34.122Z,90.62
2022-12-18T15:00:34.109Z,90.10
2022-12-18T15:05:34.017Z,90.52
2022-12-18T15:10:33.972Z,90.67
2022-12-18T15:15:34.012Z,90.67
2022-12-18T15:20:33.858Z,90.77
2022-12-18T15:25:33.757Z,90.77
2022-12-18T15:30:33.779Z,90.92
2022-12-18T15:35:33.687Z,91.24
2022-12-18T15:40:33.640Z,91.24
2022-12-18T15:45:33.516Z,91.76
2022-12-18T15:50:33.461Z,91.66
2022-12-18T15:55:33.373Z,91.76
2022-12-18T16:00:33.350Z,91.86
2022-12-18T16:05:33.251Z,91.86
2022-12-18T16:10:33.198Z,91.86
2022-12-18T16:15:33.233Z,91.86
2022-12-18T16:20:33.063Z,92.08
2022-12-18T16:25:32.995Z,91.80
2022-12-18T16:30:38.338Z,91.49
2022-12-18T16:35:33.920Z,91.49
2022-12-18T16:40:32.830Z,91.70
2022-12-18T16:45:32.757Z,91.70
2022-12-18T16:50:32.810Z,91.38
2022-12-18T16:55:32.629Z,90.96
2022-12-18T17:00:32.559Z,91.38
2022-12-18T17:05:32.499Z,91.17
2022-12-18T17:10:32.456Z,91.17
2022-12-18T17:15:32.521Z,91.59
2022-12-18T17:20:32.312Z,91.17
2022-12-18T17:25:32.233Z,91.13
2022-12-18T17:30:32.183Z,91.13
2022-12-18T17:35:32.167Z,91.24
2022-12-18T17:40:32.040Z,91.24
2022-12-18T17:45:31.959Z,91.24
2022-12-18T17:50:31.923Z,91.55
2022-12-18T17:55:31.865Z,91.44
2022-12-18T18:00:31.781Z,91.66
2022-12-18T18:05:31.681Z,91.66
2022-12-18T18:10:31.681Z,91.44
2022-12-18T18:15:31.618Z,91.44
2022-12-18T18:20:31.569Z,91.19
2022-12-18T18:25:31.453Z,91.51
2022-12-18T18:30:31.410Z,91.30
2022-12-18T18:35:53.507Z,91.51
2022-12-18T18:40:32.289Z,91.30
2022-12-18T18:45:31.248Z,91.51
2022-12-18T18:50:31.157Z,91.57
2022-12-18T18:55:31.066Z,91.36
2022-12-18T19:00:31.068Z,91.47
2022-12-18T19:05:31.936Z,91.36
2022-12-18T19:10:30.898Z,91.11
2022-12-18T19:15:30.829Z,91.11
2022-12-18T19:20:30.765Z,91.00
2022-12-18T19:25:40.663Z,90.97
2022-12-18T19:30:31.674Z,90.97
2022-12-18T19:35:30.596Z,90.75
2022-12-18T19:40:30.518Z,91.17
2022-12-18T19:45:30.496Z,91.60
2022-12-18T19:50:30.416Z,90.92
2022-12-18T19:55:30.304Z,91.13
2022-12-18T20:00:31.070Z,90.92
2022-12-18T20:05:30.253Z,91.13
2022-12-18T20:10:30.136Z,91.03
2022-12-18T20:15:30.086Z,90.99
2022-12-18T20:20:30.003Z,91.41
2022-12-18T20:25:29.926Z,91.51
2022-12-18T20:30:29.868Z,91.41
2022-12-18T20:35:29.817Z,91.47
2022-12-18T20:40:29.754Z,91.26
2022-12-18T20:45:29.671Z,91.26
2022-12-18T20:50:29.643Z,91.26
2022-12-18T20:55:29.559Z,91.26
2022-12-18T21:00:29.487Z,91.01
2022-12-18T21:05:29.480Z,91.01
2022-12-18T21:10:29.415Z,91.11
2022-12-18T21:15:29.279Z,91.43
2022-12-18T21:20:29.249Z,91.53
2022-12-18T21:25:29.150Z,91.43
2022-12-18T21:30:29.118Z,91.64
2022-12-18T21:35:29.273Z,91.49
2022-12-18T21:40:28.948Z,91.39
2022-12-18T21:45:28.940Z,91.71
2022-12-18T21:50:28.865Z,92.12
2022-12-18T21:55:28.792Z,91.81
2022-12-18T22:00:28.717Z,91.60
2022-12-18T22:05:28.669Z,91.81
2022-12-18T22:10:28.588Z,91.71
2022-12-18T22:15:28.548Z,91.81
2022-12-18T22:20:29.279Z,91.49
2022-12-18T22:25:28.378Z,91.56
2022-12-18T22:30:28.323Z,91.45
2022-12-18T22:35:28.272Z,91.77
2022-12-18T22:40:28.195Z,91.77
2022-12-18T22:45:28.142Z,91.97
2022-12-18T22:50:28.078Z,91.66
2022-12-18T22:55:28.017Z,91.66
2022-12-18T23:00:27.964Z,91.45
2022-12-18T23:05:27.856Z,91.94
2022-12-18T23:10:27.838Z,92.04
2022-12-18T23:15:28.721Z,91.83
2022-12-18T23:20:27.690Z,91.41
2022-12-18T23:25:27.606Z,91.83
2022-12-18T23:30:27.563Z,92.25
2022-12-18T23:35:27.514Z,92.77
2022-12-18T23:40:27.406Z,93.40
2022-12-18T23:45:27.367Z,93.47
2022-12-18T23:50:29.611Z,94.51
2022-12-18T23:55:27.227Z,95.25
